createdAt,value
2023-04-01T00:19:29.645Z,3
2023-04-01T00:48:49.589Z,1
2023-04-01T01:18:04.016Z,1
2023-04-01T01:47:14.164Z,3
2023-04-01T02:16:35.920Z,1
2023-04-01T02:45:50.790Z,3
2023-04-01T03:15:11.821Z,3
2023-04-01T03:44:01.673Z,3
2023-04-01T04:13:17.769Z,1
2023-04-01T04:42:37.659Z,3
2023-04-01T05:11:58.597Z,3
2023-04-01T05:41:17.517Z,3
2023-04-01T06:10:39.444Z,4
2023-04-01T06:40:01.824Z,3
2023-04-01T07:09:23.470Z,4
2023-04-01T07:38:40.658Z,4
2023-04-01T08:08:00.252Z,3
2023-04-01T08:37:08.526Z,4
2023-04-01T09:06:23.992Z,4
2023-04-01T09:35:28.170Z,6
2023-04-01T10:04:41.018Z,4
2023-04-01T10:34:02.709Z,4
2023-04-01T11:03:23.190Z,7
2023-04-01T11:32:33.475Z,7
2023-04-01T12:01:51.692Z,4
2023-04-01T12:31:06.950Z,4
2023-04-01T13:00:24.314Z,4
2023-04-01T13:29:48.662Z,4
2023-04-01T13:59:03.813Z,4
2023-04-01T14:28:17.908Z,4
2023-04-01T14:57:37.675Z,5
2023-04-01T15:26:46.815Z,4
2023-04-01T15:55:59.860Z,4
2023-04-01T16:25:13.284Z,3
2023-04-01T16:54:26.927Z,3
2023-04-01T17:23:26.830Z,3
2023-04-01T17:52:33.650Z,5
2023-04-01T18:21:53.800Z,8
2023-04-01T18:51:05.834Z,8
2023-04-01T19:20:29.047Z,9
2023-04-01T19:49:43.180Z,6
2023-04-01T20:18:57.991Z,4
2023-04-01T20:48:06.017Z,4
2023-04-01T21:17:15.962Z,6
2023-04-01T21:46:05.891Z,4
2023-04-01T22:15:15.496Z,3
2023-04-01T22:44:22.188Z,3
2023-04-01T23:13:28.850Z,3
2023-04-01T23:42:34.152Z,3
